sensor_id;sensor_type;location;lat;lon;timestamp;pressure;altitude;pressure_sealevel;temperature;humidity
75668;BME280;64266;48.798;44.756;2023-09-30T00:03:33;101903.56;;;17.06;52.84
75668;BME280;64266;48.798;44.756;2023-09-30T00:08:37;101904.84;;;17.04;53.27
75668;BME280;64266;48.798;44.756;2023-09-30T00:13:41;101903.19;;;17.03;53.32
75668;BME280;64266;48.798;44.756;2023-09-30T00:18:45;101917.41;;;17.03;53.46
75668;BME280;64266;48.798;44.756;2023-09-30T00:23:48;101914.84;;;16.97;53.96
75668;BME280;64266;48.798;44.756;2023-09-30T00:28:52;101902.81;;;16.88;54.16
75668;BME280;64266;48.798;44.756;2023-09-30T00:33:56;101918.34;;;16.86;53.86
75668;BME280;64266;48.798;44.756;2023-09-30T00:38:59;101918.44;;;16.79;55.11
75668;BME280;64266;48.798;44.756;2023-09-30T00:44:02;101912.94;;;16.74;54.84
75668;BME280;64266;48.798;44.756;2023-09-30T00:49:05;101920.59;;;16.70;55.84
75668;BME280;64266;48.798;44.756;2023-09-30T00:54:08;101909.19;;;16.63;56.29
75668;BME280;64266;48.798;44.756;2023-09-30T00:59:13;101909.72;;;16.54;56.56
75668;BME280;64266;48.798;44.756;2023-09-30T01:04:15;101915.06;;;16.54;56.66
75668;BME280;64266;48.798;44.756;2023-09-30T01:09:18;101911.56;;;16.53;56.91
75668;BME280;64266;48.798;44.756;2023-09-30T01:14:27;101885.31;;;16.32;57.78
75668;BME280;64266;48.798;44.756;2023-09-30T01:19:29;101900.66;;;16.37;57.79
75668;BME280;64266;48.798;44.756;2023-09-30T01:24:39;101905.81;;;16.38;58.01
75668;BME280;64266;48.798;44.756;2023-09-30T01:29:43;101904.91;;;16.44;58.50
75668;BME280;64266;48.798;44.756;2023-09-30T01:34:48;101911.63;;;16.35;59.06
75668;BME280;64266;48.798;44.756;2023-09-30T01:39:51;101898.91;;;16.31;59.41
75668;BME280;64266;48.798;44.756;2023-09-30T01:44:57;101891.19;;;16.22;59.81
75668;BME280;64266;48.798;44.756;2023-09-30T01:50:00;101909.16;;;16.34;60.36
75668;BME280;64266;48.798;44.756;2023-09-30T01:55:04;101910.22;;;16.33;60.57
75668;BME280;64266;48.798;44.756;2023-09-30T02:00:07;101908.09;;;16.23;61.09
75668;BME280;64266;48.798;44.756;2023-09-30T02:05:16;101889.22;;;16.18;61.40
75668;BME280;64266;48.798;44.756;2023-09-30T02:10:19;101896.34;;;16.24;61.83
75668;BME280;64266;48.798;44.756;2023-09-30T02:15:22;101883.03;;;16.17;62.34
75668;BME280;64266;48.798;44.756;2023-09-30T02:20:25;101878.81;;;16.10;62.37
75668;BME280;64266;48.798;44.756;2023-09-30T02:25:29;101898.41;;;16.22;62.90
75668;BME280;64266;48.798;44.756;2023-09-30T02:30:32;101890.84;;;16.19;63.52
75668;BME280;64266;48.798;44.756;2023-09-30T02:35:37;101908.66;;;16.25;63.51
75668;BME280;64266;48.798;44.756;2023-09-30T02:40:40;101898.28;;;16.17;63.65
75668;BME280;64266;48.798;44.756;2023-09-30T02:45:48;101898.28;;;16.17;63.86
75668;BME280;64266;48.798;44.756;2023-09-30T02:50:52;101915.53;;;16.21;64.08
75668;BME280;64266;48.798;44.756;2023-09-30T02:55:55;101910.19;;;16.21;63.48
75668;BME280;64266;48.798;44.756;2023-09-30T03:01:02;101896.34;;;16.06;62.95
75668;BME280;64266;48.798;44.756;2023-09-30T03:06:05;101921.91;;;16.20;63.36
75668;BME280;64266;48.798;44.756;2023-09-30T03:11:08;101913.50;;;16.16;62.88
75668;BME280;64266;48.798;44.756;2023-09-30T03:16:11;101916.94;;;16.23;62.74
75668;BME280;64266;48.798;44.756;2023-09-30T03:21:14;101918.78;;;16.23;63.01
75668;BME280;64266;48.798;44.756;2023-09-30T03:26:18;101928.25;;;16.37;62.88
75668;BME280;64266;48.798;44.756;2023-09-30T03:31:22;101919.19;;;16.38;62.56
75668;BME280;64266;48.798;44.756;2023-09-30T03:36:25;101919.31;;;16.43;62.16
75668;BME280;64266;48.798;44.756;2023-09-30T03:41:29;101925.09;;;16.58;61.94
75668;BME280;64266;48.798;44.756;2023-09-30T03:46:32;101887.72;;;16.52;61.66
75668;BME280;64266;48.798;44.756;2023-09-30T03:51:34;101898.84;;;16.67;61.32
75668;BME280;64266;48.798;44.756;2023-09-30T03:56:40;101929.53;;;16.94;61.11
75668;BME280;64266;48.798;44.756;2023-09-30T04:01:43;101928.97;;;17.04;60.63
75668;BME280;64266;48.798;44.756;2023-09-30T04:06:46;101942.59;;;17.14;60.40
75668;BME280;64266;48.798;44.756;2023-09-30T04:11:49;101935.63;;;17.13;60.84
75668;BME280;64266;48.798;44.756;2023-09-30T04:16:52;101955.66;;;17.33;61.00
75668;BME280;64266;48.798;44.756;2023-09-30T04:21:56;101931.06;;;17.25;61.24
75668;BME280;64266;48.798;44.756;2023-09-30T04:26:59;101964.91;;;17.61;60.52
75668;BME280;64266;48.798;44.756;2023-09-30T04:32:05;101948.31;;;17.87;58.92
75668;BME280;64266;48.798;44.756;2023-09-30T04:37:10;101965.06;;;18.57;56.19
75668;BME280;64266;48.798;44.756;2023-09-30T04:42:12;101972.38;;;19.23;53.77
75668;BME280;64266;48.798;44.756;2023-09-30T04:47:15;101956.69;;;19.70;52.42
75668;BME280;64266;48.798;44.756;2023-09-30T04:52:18;101957.16;;;19.84;50.37
75668;BME280;64266;48.798;44.756;2023-09-30T04:57:21;101954.06;;;19.97;49.11
75668;BME280;64266;48.798;44.756;2023-09-30T05:02:24;101964.31;;;20.38;47.55
75668;BME280;64266;48.798;44.756;2023-09-30T05:07:28;101975.88;;;20.61;46.84
75668;BME280;64266;48.798;44.756;2023-09-30T05:12:32;101952.56;;;21.08;45.32
75668;BME280;64266;48.798;44.756;2023-09-30T05:17:35;101957.75;;;21.98;43.17
75668;BME280;64266;48.798;44.756;2023-09-30T05:22:39;101971.72;;;22.62;40.98
75668;BME280;64266;48.798;44.756;2023-09-30T05:27:48;101979.13;;;23.12;40.52
75668;BME280;64266;48.798;44.756;2023-09-30T05:32:52;101961.25;;;23.32;40.07
75668;BME280;64266;48.798;44.756;2023-09-30T05:37:55;101943.28;;;23.76;38.93
75668;BME280;64266;48.798;44.756;2023-09-30T05:42:59;101965.72;;;24.51;38.18
75668;BME280;64266;48.798;44.756;2023-09-30T05:48:03;101969.59;;;24.84;36.89
75668;BME280;64266;48.798;44.756;2023-09-30T05:53:09;101962.88;;;25.10;36.83
75668;BME280;64266;48.798;44.756;2023-09-30T05:58:14;101945.28;;;25.31;36.23
75668;BME280;64266;48.798;44.756;2023-09-30T06:03:18;101964.53;;;25.63;35.37
75668;BME280;64266;48.798;44.756;2023-09-30T06:08:23;101974.25;;;25.69;34.77
75668;BME280;64266;48.798;44.756;2023-09-30T06:13:26;101962.91;;;25.86;35.01
75668;BME280;64266;48.798;44.756;2023-09-30T06:18:30;101968.56;;;26.13;33.96
75668;BME280;64266;48.798;44.756;2023-09-30T06:23:35;101977.06;;;26.68;33.46
75668;BME280;64266;48.798;44.756;2023-09-30T06:28:37;101948.88;;;26.96;32.34
75668;BME280;64266;48.798;44.756;2023-09-30T06:33:43;101974.38;;;27.32;32.57
75668;BME280;64266;48.798;44.756;2023-09-30T06:38:46;101963.69;;;27.36;31.67
75668;BME280;64266;48.798;44.756;2023-09-30T06:43:51;101965.59;;;27.35;31.06
75668;BME280;64266;48.798;44.756;2023-09-30T06:48:54;101961.91;;;27.72;31.41
75668;BME280;64266;48.798;44.756;2023-09-30T06:53:58;101966.84;;;27.57;30.21
75668;BME280;64266;48.798;44.756;2023-09-30T06:59:01;101981.50;;;27.47;31.19
75668;BME280;64266;48.798;44.756;2023-09-30T07:04:04;101967.50;;;27.35;31.56
75668;BME280;64266;48.798;44.756;2023-09-30T07:09:07;101926.06;;;26.73;31.82
75668;BME280;64266;48.798;44.756;2023-09-30T07:14:10;101961.28;;;27.02;31.54
75668;BME280;64266;48.798;44.756;2023-09-30T07:19:13;101946.97;;;26.59;31.84
75668;BME280;64266;48.798;44.756;2023-09-30T07:24:16;101968.97;;;26.44;31.81
75668;BME280;64266;48.798;44.756;2023-09-30T07:29:19;101971.97;;;26.00;32.00
75668;BME280;64266;48.798;44.756;2023-09-30T07:34:23;101974.72;;;25.53;32.51
75668;BME280;64266;48.798;44.756;2023-09-30T07:39:26;101955.97;;;25.22;33.06
75668;BME280;64266;48.798;44.756;2023-09-30T07:44:28;101953.44;;;25.02;33.26
75668;BME280;64266;48.798;44.756;2023-09-30T07:49:32;101974.91;;;24.99;33.63
75668;BME280;64266;48.798;44.756;2023-09-30T07:54:35;101957.59;;;24.95;33.76
75668;BME280;64266;48.798;44.756;2023-09-30T07:59:39;101935.97;;;24.74;33.77
75668;BME280;64266;48.798;44.756;2023-09-30T08:04:42;101954.97;;;24.74;33.71
75668;BME280;64266;48.798;44.756;2023-09-30T08:09:47;101939.25;;;24.71;33.18
75668;BME280;64266;48.798;44.756;2023-09-30T08:14:50;101950.00;;;24.92;33.85
75668;BME280;64266;48.798;44.756;2023-09-30T08:19:54;101934.34;;;24.78;33.63
75668;BME280;64266;48.798;44.756;2023-09-30T08:24:56;101923.78;;;24.72;33.72
75668;BME280;64266;48.798;44.756;2023-09-30T08:29:59;101945.16;;;24.84;33.44
75668;BME280;64266;48.798;44.756;2023-09-30T08:35:02;101936.22;;;24.78;33.52
75668;BME280;64266;48.798;44.756;2023-09-30T08:40:09;101934.81;;;24.86;33.72
75668;BME280;64266;48.798;44.756;2023-09-30T08:45:14;101930.13;;;24.96;34.09
75668;BME280;64266;48.798;44.756;2023-09-30T08:50:20;101908.78;;;24.79;34.26
75668;BME280;64266;48.798;44.756;2023-09-30T08:55:26;101944.22;;;24.98;33.92
75668;BME280;64266;48.798;44.756;2023-09-30T09:00:30;101934.00;;;24.90;33.41
75668;BME280;64266;48.798;44.756;2023-09-30T09:05:33;101912.38;;;24.75;32.93
75668;BME280;64266;48.798;44.756;2023-09-30T09:10:53;101925.34;;;24.88;32.92
75668;BME280;64266;48.798;44.756;2023-09-30T09:16:10;101920.66;;;24.94;31.96
75668;BME280;64266;48.798;44.756;2023-09-30T09:21:18;101912.28;;;24.90;31.87
75668;BME280;64266;48.798;44.756;2023-09-30T09:26:29;101882.81;;;24.73;31.90
75668;BME280;64266;48.798;44.756;2023-09-30T09:31:34;101919.59;;;24.90;31.44
75668;BME280;64266;48.798;44.756;2023-09-30T09:36:40;101904.97;;;24.86;31.88
75668;BME280;64266;48.798;44.756;2023-09-30T09:41:53;101903.50;;;24.98;31.93
75668;BME280;64266;48.798;44.756;2023-09-30T09:47:01;101902.72;;;24.98;30.96
75668;BME280;64266;48.798;44.756;2023-09-30T09:52:08;101897.06;;;24.94;31.10
75668;BME280;64266;48.798;44.756;2023-09-30T09:57:12;101878.88;;;24.95;32.59
75668;BME280;64266;48.798;44.756;2023-09-30T10:02:15;101888.13;;;25.17;32.53
75668;BME280;64266;48.798;44.756;2023-09-30T10:07:30;101865.75;;;25.02;32.34
75668;BME280;64266;48.798;44.756;2023-09-30T10:12:37;101873.28;;;25.10;31.94
75668;BME280;64266;48.798;44.756;2023-09-30T10:28:41;101876.16;;;24.95;34.75
75668;BME280;64266;48.798;44.756;2023-09-30T10:39:12;101877.63;;;24.82;35.26
75668;BME280;64266;48.798;44.756;2023-09-30T10:54:31;101857.50;;;24.83;33.89
75668;BME280;64266;48.798;44.756;2023-09-30T10:59:34;101862.66;;;24.85;34.29
75668;BME280;64266;48.798;44.756;2023-09-30T11:04:47;101834.66;;;24.60;33.72
75668;BME280;64266;48.798;44.756;2023-09-30T11:09:50;101841.31;;;24.73;34.07
75668;BME280;64266;48.798;44.756;2023-09-30T11:15:02;101837.22;;;24.75;34.27
75668;BME280;64266;48.798;44.756;2023-09-30T11:20:07;101841.53;;;24.76;34.58
75668;BME280;64266;48.798;44.756;2023-09-30T11:25:17;101843.94;;;24.83;34.86
75668;BME280;64266;48.798;44.756;2023-09-30T11:30:20;101836.66;;;24.78;34.52
75668;BME280;64266;48.798;44.756;2023-09-30T11:35:23;101828.84;;;24.72;34.16
75668;BME280;64266;48.798;44.756;2023-09-30T11:40:26;101823.97;;;24.69;34.46
75668;BME280;64266;48.798;44.756;2023-09-30T11:45:29;101828.91;;;24.67;34.61
75668;BME280;64266;48.798;44.756;2023-09-30T11:50:48;101807.09;;;24.48;34.49
75668;BME280;64266;48.798;44.756;2023-09-30T11:55:52;101822.50;;;24.53;34.38
75668;BME280;64266;48.798;44.756;2023-09-30T12:00:58;101827.22;;;24.42;34.72
75668;BME280;64266;48.798;44.756;2023-09-30T12:06:04;101790.16;;;24.27;34.67
75668;BME280;64266;48.798;44.756;2023-09-30T12:11:08;101816.38;;;24.37;34.61
75668;BME280;64266;48.798;44.756;2023-09-30T12:16:11;101813.16;;;24.35;34.95
75668;BME280;64266;48.798;44.756;2023-09-30T12:21:16;101810.75;;;24.28;34.73
75668;BME280;64266;48.798;44.756;2023-09-30T12:26:23;101787.88;;;24.11;34.63
75668;BME280;64266;48.798;44.756;2023-09-30T12:31:26;101801.13;;;24.12;34.66
75668;BME280;64266;48.798;44.756;2023-09-30T12:36:40;101813.53;;;24.18;34.49
75668;BME280;64266;48.798;44.756;2023-09-30T12:41:44;101816.56;;;24.12;34.67
75668;BME280;64266;48.798;44.756;2023-09-30T12:46:48;101812.50;;;24.09;35.44
75668;BME280;64266;48.798;44.756;2023-09-30T12:51:51;101792.81;;;23.94;34.58
75668;BME280;64266;48.798;44.756;2023-09-30T12:56:54;101791.53;;;23.86;34.88
75668;BME280;64266;48.798;44.756;2023-09-30T13:01:57;101803.97;;;23.87;35.33
75668;BME280;64266;48.798;44.756;2023-09-30T13:07:01;101805.09;;;23.81;35.47
75668;BME280;64266;48.798;44.756;2023-09-30T13:12:06;101814.03;;;23.82;35.83
75668;BME280;64266;48.798;44.756;2023-09-30T13:17:09;101794.06;;;23.67;36.01
75668;BME280;64266;48.798;44.756;2023-09-30T13:22:15;101806.84;;;23.62;36.19
75668;BME280;64266;48.798;44.756;2023-09-30T13:27:20;101806.84;;;23.57;36.52
75668;BME280;64266;48.798;44.756;2023-09-30T13:32:24;101800.94;;;23.45;36.55
75668;BME280;64266;48.798;44.756;2023-09-30T13:37:28;101802.88;;;23.39;36.76
75668;BME280;64266;48.798;44.756;2023-09-30T13:42:35;101808.28;;;23.29;36.52
75668;BME280;64266;48.798;44.756;2023-09-30T13:47:39;101804.00;;;23.18;38.03
75668;BME280;64266;48.798;44.756;2023-09-30T13:52:41;101812.69;;;23.05;37.96
75668;BME280;64266;48.798;44.756;2023-09-30T13:57:47;101803.28;;;22.87;38.40
75668;BME280;64266;48.798;44.756;2023-09-30T14:02:51;101826.25;;;22.90;38.71
75668;BME280;64266;48.798;44.756;2023-09-30T14:07:55;101830.06;;;22.79;39.31
75668;BME280;64266;48.798;44.756;2023-09-30T14:12:57;101827.59;;;22.62;39.99
75668;BME280;64266;48.798;44.756;2023-09-30T14:18:00;101823.00;;;22.52;40.35
75668;BME280;64266;48.798;44.756;2023-09-30T14:23:04;101819.50;;;22.37;40.70
75668;BME280;64266;48.798;44.756;2023-09-30T14:28:07;101820.28;;;22.27;40.95
75668;BME280;64266;48.798;44.756;2023-09-30T14:33:09;101824.88;;;22.17;42.10
75668;BME280;64266;48.798;44.756;2023-09-30T14:38:12;101825.97;;;22.05;42.20
75668;BME280;64266;48.798;44.756;2023-09-30T14:43:15;101793.41;;;21.65;43.24
75668;BME280;64266;48.798;44.756;2023-09-30T14:48:18;101826.09;;;21.74;43.58
75668;BME280;64266;48.798;44.756;2023-09-30T14:53:21;101817.16;;;21.58;44.22
75668;BME280;64266;48.798;44.756;2023-09-30T14:58:25;101818.72;;;21.44;44.31
75668;BME280;64266;48.798;44.756;2023-09-30T15:03:28;101829.97;;;21.31;45.19
75668;BME280;64266;48.798;44.756;2023-09-30T15:08:32;101829.09;;;21.20;45.38
75668;BME280;64266;48.798;44.756;2023-09-30T15:13:35;101836.06;;;21.11;46.31
75668;BME280;64266;48.798;44.756;2023-09-30T15:18:38;101833.53;;;20.99;46.58
75668;BME280;64266;48.798;44.756;2023-09-30T15:23:42;101840.53;;;20.95;46.97
75668;BME280;64266;48.798;44.756;2023-09-30T15:28:45;101843.97;;;20.86;47.80
75668;BME280;64266;48.798;44.756;2023-09-30T15:33:47;101825.28;;;20.74;48.43
75668;BME280;64266;48.798;44.756;2023-09-30T15:38:51;101851.41;;;20.74;48.95
75668;BME280;64266;48.798;44.756;2023-09-30T15:43:58;101821.53;;;20.43;49.39
75668;BME280;64266;48.798;44.756;2023-09-30T15:49:02;101845.03;;;20.48;49.59
75668;BME280;64266;48.798;44.756;2023-09-30T15:54:05;101848.75;;;20.42;49.68
75668;BME280;64266;48.798;44.756;2023-09-30T15:59:08;101858.09;;;20.34;49.26
75668;BME280;64266;48.798;44.756;2023-09-30T16:04:11;101843.63;;;20.19;49.57
75668;BME280;64266;48.798;44.756;2023-09-30T16:09:14;101859.78;;;20.19;49.45
75668;BME280;64266;48.798;44.756;2023-09-30T16:14:18;101854.06;;;20.10;48.74
75668;BME280;64266;48.798;44.756;2023-09-30T16:19:21;101859.63;;;20.03;48.29
75668;BME280;64266;48.798;44.756;2023-09-30T16:24:24;101857.09;;;19.92;47.70
75668;BME280;64266;48.798;44.756;2023-09-30T16:29:26;101859.78;;;19.92;47.90
75668;BME280;64266;48.798;44.756;2023-09-30T16:34:29;101855.63;;;19.84;48.32
75668;BME280;64266;48.798;44.756;2023-09-30T16:39:32;101855.47;;;19.69;48.07
75668;BME280;64266;48.798;44.756;2023-09-30T16:44:35;101868.41;;;19.72;48.50
75668;BME280;64266;48.798;44.756;2023-09-30T16:49:39;101865.13;;;19.65;48.17
75668;BME280;64266;48.798;44.756;2023-09-30T16:54:42;101862.34;;;19.60;47.31
75668;BME280;64266;48.798;44.756;2023-09-30T16:59:45;101865.00;;;19.55;47.08
75668;BME280;64266;48.798;44.756;2023-09-30T17:04:48;101865.66;;;19.45;46.09
75668;BME280;64266;48.798;44.756;2023-09-30T17:09:52;101869.13;;;19.41;46.12
75668;BME280;64266;48.798;44.756;2023-09-30T17:14:54;101882.72;;;19.34;45.80
75668;BME280;64266;48.798;44.756;2023-09-30T17:19:57;101867.16;;;19.20;45.46
75668;BME280;64266;48.798;44.756;2023-09-30T17:25:00;101855.94;;;19.06;45.42
75668;BME280;64266;48.798;44.756;2023-09-30T17:30:03;101858.97;;;18.93;44.88
75668;BME280;64266;48.798;44.756;2023-09-30T17:35:07;101876.47;;;18.95;43.88
75668;BME280;64266;48.798;44.756;2023-09-30T17:40:11;101880.41;;;18.88;44.08
75668;BME280;64266;48.798;44.756;2023-09-30T17:45:14;101893.44;;;18.79;43.74
75668;BME280;64266;48.798;44.756;2023-09-30T17:50:16;101885.75;;;18.71;43.88
75668;BME280;64266;48.798;44.756;2023-09-30T17:55:18;101871.72;;;18.53;43.75
75668;BME280;64266;48.798;44.756;2023-09-30T18:00:21;101879.31;;;18.56;43.38
75668;BME280;64266;48.798;44.756;2023-09-30T18:05:24;101868.72;;;18.49;43.49
75668;BME280;64266;48.798;44.756;2023-09-30T18:10:26;101867.94;;;18.37;43.39
75668;BME280;64266;48.798;44.756;2023-09-30T18:15:29;101883.19;;;18.48;43.09
75668;BME280;64266;48.798;44.756;2023-09-30T18:20:31;101901.88;;;18.55;43.44
75668;BME280;64266;48.798;44.756;2023-09-30T18:25:36;101898.38;;;18.54;43.65
75668;BME280;64266;48.798;44.756;2023-09-30T18:30:42;101878.53;;;18.43;43.62
75668;BME280;64266;48.798;44.756;2023-09-30T18:35:45;101873.63;;;18.40;43.67
75668;BME280;64266;48.798;44.756;2023-09-30T18:40:48;101895.25;;;18.46;43.97
75668;BME280;64266;48.798;44.756;2023-09-30T18:45:51;101892.56;;;18.46;43.66
75668;BME280;64266;48.798;44.756;2023-09-30T18:50:54;101873.56;;;18.35;43.81
75668;BME280;64266;48.798;44.756;2023-09-30T18:55:56;101874.75;;;18.28;43.53
75668;BME280;64266;48.798;44.756;2023-09-30T19:01:00;101889.34;;;18.32;43.25
75668;BME280;64266;48.798;44.756;2023-09-30T19:06:03;101892.97;;;18.26;44.05
75668;BME280;64266;48.798;44.756;2023-09-30T19:11:06;101897.34;;;18.15;44.02
75668;BME280;64266;48.798;44.756;2023-09-30T19:16:09;101895.94;;;18.13;43.85
75668;BME280;64266;48.798;44.756;2023-09-30T19:21:11;101892.75;;;17.99;44.22
75668;BME280;64266;48.798;44.756;2023-09-30T19:26:14;101898.91;;;18.00;44.27
75668;BME280;64266;48.798;44.756;2023-09-30T19:31:18;101882.38;;;17.91;44.13
75668;BME280;64266;48.798;44.756;2023-09-30T19:36:20;101893.22;;;17.96;44.24
75668;BME280;64266;48.798;44.756;2023-09-30T19:41:23;101900.47;;;17.96;43.82
75668;BME280;64266;48.798;44.756;2023-09-30T19:46:25;101898.13;;;17.87;44.75
75668;BME280;64266;48.798;44.756;2023-09-30T19:51:28;101899.53;;;17.78;44.01
75668;BME280;64266;48.798;44.756;2023-09-30T19:56:30;101873.94;;;17.59;44.25
75668;BME280;64266;48.798;44.756;2023-09-30T20:01:33;101900.06;;;17.64;44.16
75668;BME280;64266;48.798;44.756;2023-09-30T20:06:37;101905.06;;;17.60;44.26
75668;BME280;64266;48.798;44.756;2023-09-30T20:11:40;101900.97;;;17.46;44.50
75668;BME280;64266;48.798;44.756;2023-09-30T20:16:43;101895.06;;;17.44;44.05
75668;BME280;64266;48.798;44.756;2023-09-30T20:21:48;101904.13;;;17.43;43.94
75668;BME280;64266;48.798;44.756;2023-09-30T20:26:51;101901.69;;;17.30;43.91
75668;BME280;64266;48.798;44.756;2023-09-30T20:31:55;101893.75;;;17.23;43.63
75668;BME280;64266;48.798;44.756;2023-09-30T20:36:58;101907.41;;;17.22;43.58
75668;BME280;64266;48.798;44.756;2023-09-30T20:42:01;101908.09;;;17.06;43.89
75668;BME280;64266;48.798;44.756;2023-09-30T20:47:05;101903.31;;;16.96;43.90
75668;BME280;64266;48.798;44.756;2023-09-30T20:52:09;101907.25;;;16.82;44.12
75668;BME280;64266;48.798;44.756;2023-09-30T20:57:12;101907.56;;;16.74;44.60
75668;BME280;64266;48.798;44.756;2023-09-30T21:02:14;101894.41;;;16.61;44.36
75668;BME280;64266;48.798;44.756;2023-09-30T21:07:17;101896.78;;;16.51;44.83
75668;BME280;64266;48.798;44.756;2023-09-30T21:12:21;101877.16;;;16.27;45.17
75668;BME280;64266;48.798;44.756;2023-09-30T21:17:24;101906.28;;;16.35;45.22
75668;BME280;64266;48.798;44.756;2023-09-30T21:22:28;101886.09;;;16.21;45.54
75668;BME280;64266;48.798;44.756;2023-09-30T21:27:30;101896.56;;;16.22;45.49
75668;BME280;64266;48.798;44.756;2023-09-30T21:32:34;101892.34;;;16.15;45.18
75668;BME280;64266;48.798;44.756;2023-09-30T21:37:36;101899.09;;;16.17;45.36
75668;BME280;64266;48.798;44.756;2023-09-30T21:42:40;101900.72;;;16.18;45.70
75668;BME280;64266;48.798;44.756;2023-09-30T21:47:43;101884.13;;;15.98;45.68
75668;BME280;64266;48.798;44.756;2023-09-30T21:52:47;101896.72;;;16.09;45.56
75668;BME280;64266;48.798;44.756;2023-09-30T21:57:51;101897.91;;;16.13;45.35
75668;BME280;64266;48.798;44.756;2023-09-30T22:02:54;101898.00;;;16.07;45.49
75668;BME280;64266;48.798;44.756;2023-09-30T22:07:57;101887.59;;;15.99;46.04
75668;BME280;64266;48.798;44.756;2023-09-30T22:13:01;101904.81;;;16.03;45.60
75668;BME280;64266;48.798;44.756;2023-09-30T22:18:05;101888.56;;;16.04;45.62
75668;BME280;64266;48.798;44.756;2023-09-30T22:23:08;101903.59;;;16.05;45.81
75668;BME280;64266;48.798;44.756;2023-09-30T22:28:12;101842.75;;;15.64;46.16
75668;BME280;64266;48.798;44.756;2023-09-30T22:33:16;101892.47;;;15.90;45.82
75668;BME280;64266;48.798;44.756;2023-09-30T22:38:19;101886.28;;;15.90;46.62
75668;BME280;64266;48.798;44.756;2023-09-30T22:43:22;101900.69;;;15.89;46.97
75668;BME280;64266;48.798;44.756;2023-09-30T22:48:27;101892.81;;;15.76;46.65
75668;BME280;64266;48.798;44.756;2023-09-30T22:53:29;101894.91;;;15.73;47.11
75668;BME280;64266;48.798;44.756;2023-09-30T22:58:32;101876.50;;;15.65;46.96
75668;BME280;64266;48.798;44.756;2023-09-30T23:03:35;101886.75;;;15.68;46.66
75668;BME280;64266;48.798;44.756;2023-09-30T23:08:37;101886.19;;;15.60;46.90
75668;BME280;64266;48.798;44.756;2023-09-30T23:13:41;101878.63;;;15.57;47.22
75668;BME280;64266;48.798;44.756;2023-09-30T23:18:44;101872.56;;;15.50;47.13
75668;BME280;64266;48.798;44.756;2023-09-30T23:23:47;101878.50;;;15.52;46.78
75668;BME280;64266;48.798;44.756;2023-09-30T23:28:51;101870.81;;;15.37;47.14
75668;BME280;64266;48.798;44.756;2023-09-30T23:33:53;101871.84;;;15.36;47.71
75668;BME280;64266;48.798;44.756;2023-09-30T23:38:57;101873.84;;;15.41;47.57
75668;BME280;64266;48.798;44.756;2023-09-30T23:44:00;101877.75;;;15.38;47.69
75668;BME280;64266;48.798;44.756;2023-09-30T23:49:07;101887.66;;;15.38;47.45
75668;BME280;64266;48.798;44.756;2023-09-30T23:54:10;101850.81;;;15.22;47.83
75668;BME280;64266;48.798;44.756;2023-09-30T23:59:15;101888.81;;;15.48;47.47
